sensor_id;sensor_type;location;lat;lon;timestamp;P1;durP1;ratioP1;P2;durP2;ratioP2
63699;SDS011;49845;47.130;142.766;2023-04-21T00:01:09;7.20;;;1.75;;
63699;SDS011;49845;47.130;142.766;2023-04-21T00:03:40;5.22;;;1.67;;
63699;SDS011;49845;47.130;142.766;2023-04-21T00:06:10;3.70;;;1.45;;
63699;SDS011;49845;47.130;142.766;2023-04-21T00:08:41;7.57;;;1.60;;
63699;SDS011;49845;47.130;142.766;2023-04-21T00:11:12;5.15;;;1.40;;
63699;SDS011;49845;47.130;142.766;2023-04-21T00:13:43;2.83;;;1.13;;
63699;SDS011;49845;47.130;142.766;2023-04-21T00:16:15;7.57;;;1.70;;
63699;SDS011;49845;47.130;142.766;2023-04-21T00:18:46;3.88;;;1.38;;
63699;SDS011;49845;47.130;142.766;2023-04-21T00:21:16;7.25;;;1.52;;
63699;SDS011;49845;47.130;142.766;2023-04-21T00:23:47;7.40;;;1.40;;
63699;SDS011;49845;47.130;142.766;2023-04-21T00:26:18;4.53;;;1.40;;
63699;SDS011;49845;47.130;142.766;2023-04-21T00:28:48;6.45;;;1.65;;
63699;SDS011;49845;47.130;142.766;2023-04-21T00:31:20;8.90;;;1.40;;
63699;SDS011;49845;47.130;142.766;2023-04-21T00:33:51;7.38;;;1.40;;
63699;SDS011;49845;47.130;142.766;2023-04-21T00:36:22;5.13;;;1.55;;
63699;SDS011;49845;47.130;142.766;2023-04-21T00:38:54;7.47;;;1.35;;
63699;SDS011;49845;47.130;142.766;2023-04-21T00:41:25;4.15;;;1.23;;
63699;SDS011;49845;47.130;142.766;2023-04-21T00:44:00;3.08;;;1.25;;
63699;SDS011;49845;47.130;142.766;2023-04-21T00:46:33;6.38;;;1.50;;
63699;SDS011;49845;47.130;142.766;2023-04-21T00:49:05;6.38;;;1.40;;
63699;SDS011;49845;47.130;142.766;2023-04-21T00:51:39;4.95;;;1.00;;
63699;SDS011;49845;47.130;142.766;2023-04-21T00:54:10;4.15;;;1.00;;
63699;SDS011;49845;47.130;142.766;2023-04-21T00:56:42;7.60;;;1.33;;
63699;SDS011;49845;47.130;142.766;2023-04-21T00:59:12;4.03;;;1.33;;
63699;SDS011;49845;47.130;142.766;2023-04-21T01:01:45;3.90;;;1.27;;
63699;SDS011;49845;47.130;142.766;2023-04-21T01:04:16;3.08;;;1.42;;
63699;SDS011;49845;47.130;142.766;2023-04-21T01:06:46;3.33;;;0.98;;
63699;SDS011;49845;47.130;142.766;2023-04-21T01:09:17;6.75;;;1.38;;
63699;SDS011;49845;47.130;142.766;2023-04-21T01:12:00;3.90;;;1.23;;
63699;SDS011;49845;47.130;142.766;2023-04-21T01:14:31;5.93;;;1.20;;
63699;SDS011;49845;47.130;142.766;2023-04-21T01:17:03;5.57;;;1.25;;
63699;SDS011;49845;47.130;142.766;2023-04-21T01:19:36;3.30;;;1.08;;
63699;SDS011;49845;47.130;142.766;2023-04-21T01:22:10;4.70;;;0.90;;
63699;SDS011;49845;47.130;142.766;2023-04-21T01:24:42;5.75;;;1.48;;
63699;SDS011;49845;47.130;142.766;2023-04-21T01:27:16;2.72;;;0.77;;
63699;SDS011;49845;47.130;142.766;2023-04-21T01:29:48;5.60;;;0.93;;
63699;SDS011;49845;47.130;142.766;2023-04-21T01:32:22;4.63;;;1.23;;
63699;SDS011;49845;47.130;142.766;2023-04-21T01:34:56;4.50;;;1.10;;
63699;SDS011;49845;47.130;142.766;2023-04-21T01:37:30;4.05;;;1.10;;
63699;SDS011;49845;47.130;142.766;2023-04-21T01:40:03;2.45;;;0.75;;
63699;SDS011;49845;47.130;142.766;2023-04-21T01:42:36;5.43;;;1.35;;
63699;SDS011;49845;47.130;142.766;2023-04-21T01:45:09;1.80;;;0.90;;
63699;SDS011;49845;47.130;142.766;2023-04-21T01:47:40;7.63;;;1.00;;
63699;SDS011;49845;47.130;142.766;2023-04-21T01:50:10;2.95;;;1.08;;
63699;SDS011;49845;47.130;142.766;2023-04-21T01:52:43;4.88;;;1.50;;
63699;SDS011;49845;47.130;142.766;2023-04-21T01:55:13;3.42;;;0.82;;
63699;SDS011;49845;47.130;142.766;2023-04-21T01:57:44;3.80;;;0.90;;
63699;SDS011;49845;47.130;142.766;2023-04-21T02:00:15;4.25;;;0.90;;
63699;SDS011;49845;47.130;142.766;2023-04-21T02:02:46;1.80;;;0.70;;
63699;SDS011;49845;47.130;142.766;2023-04-21T02:05:16;4.25;;;0.80;;
63699;SDS011;49845;47.130;142.766;2023-04-21T02:07:49;1.77;;;0.65;;
63699;SDS011;49845;47.130;142.766;2023-04-21T02:10:19;1.73;;;0.73;;
63699;SDS011;49845;47.130;142.766;2023-04-21T02:12:50;4.60;;;0.80;;
63699;SDS011;49845;47.130;142.766;2023-04-21T02:15:20;2.38;;;0.73;;
63699;SDS011;49845;47.130;142.766;2023-04-21T02:17:51;3.42;;;0.60;;
63699;SDS011;49845;47.130;142.766;2023-04-21T02:20:21;3.90;;;1.00;;
63699;SDS011;49845;47.130;142.766;2023-04-21T02:22:53;0.50;;;0.50;;
63699;SDS011;49845;47.130;142.766;2023-04-21T02:25:24;1.88;;;0.70;;
63699;SDS011;49845;47.130;142.766;2023-04-21T02:27:55;3.55;;;0.80;;
63699;SDS011;49845;47.130;142.766;2023-04-21T02:30:25;1.75;;;0.73;;
63699;SDS011;49845;47.130;142.766;2023-04-21T02:32:56;5.32;;;0.85;;
63699;SDS011;49845;47.130;142.766;2023-04-21T02:35:27;3.00;;;0.80;;
63699;SDS011;49845;47.130;142.766;2023-04-21T02:37:59;1.50;;;0.80;;
63699;SDS011;49845;47.130;142.766;2023-04-21T02:40:36;4.35;;;1.30;;
63699;SDS011;49845;47.130;142.766;2023-04-21T02:43:07;1.75;;;1.15;;
63699;SDS011;49845;47.130;142.766;2023-04-21T02:45:39;1.33;;;0.68;;
63699;SDS011;49845;47.130;142.766;2023-04-21T02:48:09;5.40;;;0.93;;
63699;SDS011;49845;47.130;142.766;2023-04-21T02:50:41;2.65;;;0.82;;
63699;SDS011;49845;47.130;142.766;2023-04-21T02:53:14;1.30;;;0.60;;
63699;SDS011;49845;47.130;142.766;2023-04-21T02:55:44;1.77;;;0.57;;
63699;SDS011;49845;47.130;142.766;2023-04-21T02:58:15;2.03;;;0.70;;
63699;SDS011;49845;47.130;142.766;2023-04-21T03:00:45;5.90;;;0.82;;
63699;SDS011;49845;47.130;142.766;2023-04-21T03:03:16;0.68;;;0.50;;
63699;SDS011;49845;47.130;142.766;2023-04-21T03:05:47;1.10;;;0.52;;
63699;SDS011;49845;47.130;142.766;2023-04-21T03:08:19;1.52;;;0.60;;
63699;SDS011;49845;47.130;142.766;2023-04-21T03:10:50;1.58;;;0.70;;
63699;SDS011;49845;47.130;142.766;2023-04-21T03:13:20;1.60;;;0.60;;
63699;SDS011;49845;47.130;142.766;2023-04-21T03:15:51;1.20;;;0.40;;
63699;SDS011;49845;47.130;142.766;2023-04-21T03:18:22;2.95;;;0.85;;
63699;SDS011;49845;47.130;142.766;2023-04-21T03:20:57;0.77;;;0.50;;
63699;SDS011;49845;47.130;142.766;2023-04-21T03:23:30;1.35;;;0.50;;
63699;SDS011;49845;47.130;142.766;2023-04-21T03:26:05;2.58;;;0.68;;
63699;SDS011;49845;47.130;142.766;2023-04-21T03:28:36;1.90;;;0.45;;
63699;SDS011;49845;47.130;142.766;2023-04-21T03:31:06;1.67;;;0.52;;
63699;SDS011;49845;47.130;142.766;2023-04-21T03:33:37;2.85;;;0.65;;
63699;SDS011;49845;47.130;142.766;2023-04-21T03:36:08;2.03;;;0.65;;
63699;SDS011;49845;47.130;142.766;2023-04-21T03:38:40;2.25;;;0.77;;
63699;SDS011;49845;47.130;142.766;2023-04-21T03:41:10;1.60;;;0.52;;
63699;SDS011;49845;47.130;142.766;2023-04-21T03:43:41;3.40;;;0.70;;
63699;SDS011;49845;47.130;142.766;2023-04-21T03:46:18;0.90;;;0.55;;
63699;SDS011;49845;47.130;142.766;2023-04-21T03:48:49;1.77;;;0.60;;
63699;SDS011;49845;47.130;142.766;2023-04-21T03:51:19;2.55;;;0.45;;
63699;SDS011;49845;47.130;142.766;2023-04-21T03:53:52;1.75;;;0.57;;
63699;SDS011;49845;47.130;142.766;2023-04-21T03:56:22;1.13;;;0.60;;
63699;SDS011;49845;47.130;142.766;2023-04-21T03:58:53;2.83;;;0.52;;
63699;SDS011;49845;47.130;142.766;2023-04-21T04:01:24;1.10;;;0.57;;
63699;SDS011;49845;47.130;142.766;2023-04-21T04:03:55;1.40;;;0.45;;
63699;SDS011;49845;47.130;142.766;2023-04-21T04:06:26;1.30;;;0.88;;
63699;SDS011;49845;47.130;142.766;2023-04-21T04:08:58;1.75;;;0.50;;
63699;SDS011;49845;47.130;142.766;2023-04-21T04:11:31;2.25;;;1.13;;
63699;SDS011;49845;47.130;142.766;2023-04-21T04:14:01;1.65;;;0.47;;
63699;SDS011;49845;47.130;142.766;2023-04-21T04:16:32;0.88;;;0.50;;
63699;SDS011;49845;47.130;142.766;2023-04-21T04:19:03;1.42;;;0.68;;
63699;SDS011;49845;47.130;142.766;2023-04-21T04:21:34;2.13;;;0.60;;
63699;SDS011;49845;47.130;142.766;2023-04-21T04:24:06;0.85;;;0.68;;
63699;SDS011;49845;47.130;142.766;2023-04-21T04:26:38;1.40;;;0.65;;
63699;SDS011;49845;47.130;142.766;2023-04-21T04:29:08;2.35;;;0.60;;
63699;SDS011;49845;47.130;142.766;2023-04-21T04:31:40;0.60;;;0.50;;
63699;SDS011;49845;47.130;142.766;2023-04-21T04:34:11;2.55;;;0.50;;
63699;SDS011;49845;47.130;142.766;2023-04-21T04:36:42;0.55;;;0.55;;
63699;SDS011;49845;47.130;142.766;2023-04-21T04:39:14;1.48;;;0.40;;
63699;SDS011;49845;47.130;142.766;2023-04-21T04:41:48;0.73;;;0.60;;
63699;SDS011;49845;47.130;142.766;2023-04-21T04:44:23;0.80;;;0.50;;
63699;SDS011;49845;47.130;142.766;2023-04-21T04:47:00;1.20;;;0.45;;
63699;SDS011;49845;47.130;142.766;2023-04-21T04:49:37;1.42;;;0.50;;
63699;SDS011;49845;47.130;142.766;2023-04-21T04:52:08;0.95;;;0.52;;
63699;SDS011;49845;47.130;142.766;2023-04-21T04:54:40;1.77;;;0.40;;
63699;SDS011;49845;47.130;142.766;2023-04-21T04:57:11;1.70;;;0.60;;
63699;SDS011;49845;47.130;142.766;2023-04-21T04:59:42;1.48;;;0.55;;
63699;SDS011;49845;47.130;142.766;2023-04-21T05:02:13;1.58;;;0.50;;
63699;SDS011;49845;47.130;142.766;2023-04-21T05:04:43;1.60;;;0.60;;
63699;SDS011;49845;47.130;142.766;2023-04-21T05:07:15;0.40;;;0.40;;
63699;SDS011;49845;47.130;142.766;2023-04-21T05:09:47;0.43;;;0.43;;
63699;SDS011;49845;47.130;142.766;2023-04-21T05:12:17;0.82;;;0.70;;
63699;SDS011;49845;47.130;142.766;2023-04-21T05:14:49;0.60;;;0.52;;
63699;SDS011;49845;47.130;142.766;2023-04-21T05:17:19;1.58;;;0.60;;
63699;SDS011;49845;47.130;142.766;2023-04-21T05:19:50;0.43;;;0.40;;
63699;SDS011;49845;47.130;142.766;2023-04-21T05:22:20;0.60;;;0.60;;
63699;SDS011;49845;47.130;142.766;2023-04-21T05:24:53;0.40;;;0.40;;
63699;SDS011;49845;47.130;142.766;2023-04-21T05:27:23;0.43;;;0.40;;
63699;SDS011;49845;47.130;142.766;2023-04-21T05:29:54;6.28;;;0.50;;
63699;SDS011;49845;47.130;142.766;2023-04-21T05:32:24;0.40;;;0.40;;
63699;SDS011;49845;47.130;142.766;2023-04-21T05:34:56;0.40;;;0.40;;
63699;SDS011;49845;47.130;142.766;2023-04-21T05:37:27;1.00;;;0.70;;
63699;SDS011;49845;47.130;142.766;2023-04-21T05:39:59;1.58;;;0.40;;
63699;SDS011;49845;47.130;142.766;2023-04-21T05:42:31;0.40;;;0.40;;
63699;SDS011;49845;47.130;142.766;2023-04-21T05:45:01;4.70;;;0.50;;
63699;SDS011;49845;47.130;142.766;2023-04-21T05:47:32;1.17;;;0.40;;
63699;SDS011;49845;47.130;142.766;2023-04-21T05:50:04;0.85;;;0.50;;
63699;SDS011;49845;47.130;142.766;2023-04-21T05:52:36;0.68;;;0.40;;
63699;SDS011;49845;47.130;142.766;2023-04-21T05:55:08;1.25;;;0.60;;
63699;SDS011;49845;47.130;142.766;2023-04-21T05:57:39;0.65;;;0.45;;
63699;SDS011;49845;47.130;142.766;2023-04-21T06:00:10;0.63;;;0.50;;
63699;SDS011;49845;47.130;142.766;2023-04-21T06:02:41;4.32;;;0.65;;
63699;SDS011;49845;47.130;142.766;2023-04-21T06:05:12;0.60;;;0.60;;
63699;SDS011;49845;47.130;142.766;2023-04-21T06:07:43;2.05;;;0.45;;
63699;SDS011;49845;47.130;142.766;2023-04-21T06:10:15;0.70;;;0.50;;
63699;SDS011;49845;47.130;142.766;2023-04-21T06:12:46;2.65;;;0.60;;
63699;SDS011;49845;47.130;142.766;2023-04-21T06:15:17;0.63;;;0.30;;
63699;SDS011;49845;47.130;142.766;2023-04-21T06:17:51;0.32;;;0.32;;
63699;SDS011;49845;47.130;142.766;2023-04-21T06:20:23;0.40;;;0.40;;
63699;SDS011;49845;47.130;142.766;2023-04-21T06:22:53;0.40;;;0.40;;
63699;SDS011;49845;47.130;142.766;2023-04-21T06:25:25;1.13;;;0.63;;
63699;SDS011;49845;47.130;142.766;2023-04-21T06:27:56;2.38;;;1.00;;
63699;SDS011;49845;47.130;142.766;2023-04-21T06:30:27;0.50;;;0.50;;
63699;SDS011;49845;47.130;142.766;2023-04-21T06:32:57;0.52;;;0.50;;
63699;SDS011;49845;47.130;142.766;2023-04-21T06:35:28;0.90;;;0.60;;
63699;SDS011;49845;47.130;142.766;2023-04-21T06:37:59;1.75;;;0.50;;
63699;SDS011;49845;47.130;142.766;2023-04-21T06:40:31;0.40;;;0.40;;
63699;SDS011;49845;47.130;142.766;2023-04-21T06:43:02;2.15;;;0.40;;
63699;SDS011;49845;47.130;142.766;2023-04-21T06:45:33;1.05;;;0.47;;
63699;SDS011;49845;47.130;142.766;2023-04-21T06:48:04;4.63;;;0.65;;
63699;SDS011;49845;47.130;142.766;2023-04-21T06:50:38;7.28;;;0.80;;
63699;SDS011;49845;47.130;142.766;2023-04-21T06:53:10;3.17;;;0.57;;
63699;SDS011;49845;47.130;142.766;2023-04-21T06:55:43;2.05;;;0.50;;
63699;SDS011;49845;47.130;142.766;2023-04-21T06:58:14;0.55;;;0.40;;
63699;SDS011;49845;47.130;142.766;2023-04-21T07:00:47;1.20;;;0.60;;
63699;SDS011;49845;47.130;142.766;2023-04-21T07:03:17;0.40;;;0.40;;
63699;SDS011;49845;47.130;142.766;2023-04-21T07:05:48;0.40;;;0.40;;
63699;SDS011;49845;47.130;142.766;2023-04-21T07:08:19;3.40;;;0.60;;
63699;SDS011;49845;47.130;142.766;2023-04-21T07:10:52;0.50;;;0.50;;
63699;SDS011;49845;47.130;142.766;2023-04-21T07:13:22;1.10;;;0.40;;
63699;SDS011;49845;47.130;142.766;2023-04-21T07:15:53;0.60;;;0.60;;
63699;SDS011;49845;47.130;142.766;2023-04-21T07:18:24;0.40;;;0.40;;
63699;SDS011;49845;47.130;142.766;2023-04-21T07:20:54;0.80;;;0.50;;
63699;SDS011;49845;47.130;142.766;2023-04-21T07:23:25;0.40;;;0.40;;
63699;SDS011;49845;47.130;142.766;2023-04-21T07:25:57;0.40;;;0.40;;
63699;SDS011;49845;47.130;142.766;2023-04-21T07:28:28;1.95;;;0.50;;
63699;SDS011;49845;47.130;142.766;2023-04-21T07:30:58;0.55;;;0.43;;
63699;SDS011;49845;47.130;142.766;2023-04-21T07:33:29;1.13;;;0.40;;
63699;SDS011;49845;47.130;142.766;2023-04-21T07:36:00;2.75;;;0.50;;
63699;SDS011;49845;47.130;142.766;2023-04-21T07:38:30;1.75;;;0.50;;
63699;SDS011;49845;47.130;142.766;2023-04-21T07:41:02;1.60;;;0.40;;
63699;SDS011;49845;47.130;142.766;2023-04-21T07:43:33;4.47;;;0.50;;
63699;SDS011;49845;47.130;142.766;2023-04-21T07:46:03;0.57;;;0.55;;
63699;SDS011;49845;47.130;142.766;2023-04-21T07:48:35;2.85;;;0.50;;
63699;SDS011;49845;47.130;142.766;2023-04-21T07:51:05;4.30;;;0.50;;
63699;SDS011;49845;47.130;142.766;2023-04-21T07:53:36;0.50;;;0.50;;
63699;SDS011;49845;47.130;142.766;2023-04-21T07:56:08;0.95;;;0.55;;
63699;SDS011;49845;47.130;142.766;2023-04-21T07:58:39;1.05;;;0.60;;
63699;SDS011;49845;47.130;142.766;2023-04-21T08:01:10;3.13;;;0.68;;
63699;SDS011;49845;47.130;142.766;2023-04-21T08:03:41;0.50;;;0.50;;
63699;SDS011;49845;47.130;142.766;2023-04-21T08:06:12;4.70;;;2.05;;
63699;SDS011;49845;47.130;142.766;2023-04-21T08:08:43;7.80;;;3.88;;
63699;SDS011;49845;47.130;142.766;2023-04-21T08:11:15;1.92;;;0.63;;
63699;SDS011;49845;47.130;142.766;2023-04-21T08:13:46;2.08;;;0.60;;
63699;SDS011;49845;47.130;142.766;2023-04-21T08:16:16;2.33;;;0.70;;
63699;SDS011;49845;47.130;142.766;2023-04-21T08:18:47;0.75;;;0.60;;
63699;SDS011;49845;47.130;142.766;2023-04-21T08:21:18;1.20;;;0.60;;
63699;SDS011;49845;47.130;142.766;2023-04-21T08:23:48;4.97;;;0.75;;
63699;SDS011;49845;47.130;142.766;2023-04-21T08:26:21;3.50;;;0.85;;
63699;SDS011;49845;47.130;142.766;2023-04-21T08:28:51;0.85;;;0.60;;
63699;SDS011;49845;47.130;142.766;2023-04-21T08:31:22;4.32;;;0.80;;
63699;SDS011;49845;47.130;142.766;2023-04-21T08:33:53;2.67;;;0.80;;
63699;SDS011;49845;47.130;142.766;2023-04-21T08:36:28;0.50;;;0.50;;
63699;SDS011;49845;47.130;142.766;2023-04-21T08:38:59;1.55;;;0.65;;
63699;SDS011;49845;47.130;142.766;2023-04-21T08:41:32;1.40;;;0.63;;
63699;SDS011;49845;47.130;142.766;2023-04-21T08:44:03;1.80;;;0.70;;
63699;SDS011;49845;47.130;142.766;2023-04-21T08:46:38;1.17;;;0.70;;
63699;SDS011;49845;47.130;142.766;2023-04-21T08:49:09;3.50;;;0.70;;
63699;SDS011;49845;47.130;142.766;2023-04-21T08:51:41;0.60;;;0.60;;
63699;SDS011;49845;47.130;142.766;2023-04-21T08:54:12;6.70;;;0.85;;
63699;SDS011;49845;47.130;142.766;2023-04-21T08:56:44;0.98;;;0.90;;
63699;SDS011;49845;47.130;142.766;2023-04-21T08:59:21;1.50;;;0.65;;
63699;SDS011;49845;47.130;142.766;2023-04-21T09:02:07;4.38;;;0.90;;
63699;SDS011;49845;47.130;142.766;2023-04-21T09:04:39;5.90;;;0.85;;
63699;SDS011;49845;47.130;142.766;2023-04-21T09:07:29;1.08;;;0.80;;
63699;SDS011;49845;47.130;142.766;2023-04-21T09:10:10;1.67;;;0.80;;
63699;SDS011;49845;47.130;142.766;2023-04-21T09:12:45;1.48;;;1.20;;
63699;SDS011;49845;47.130;142.766;2023-04-21T09:15:21;1.02;;;0.80;;
63699;SDS011;49845;47.130;142.766;2023-04-21T09:17:54;0.95;;;0.80;;
63699;SDS011;49845;47.130;142.766;2023-04-21T09:20:28;1.65;;;0.90;;
63699;SDS011;49845;47.130;142.766;2023-04-21T09:22:59;1.20;;;0.75;;
63699;SDS011;49845;47.130;142.766;2023-04-21T09:25:33;2.05;;;0.80;;
63699;SDS011;49845;47.130;142.766;2023-04-21T09:28:11;1.30;;;0.90;;
63699;SDS011;49845;47.130;142.766;2023-04-21T09:30:44;2.10;;;1.33;;
63699;SDS011;49845;47.130;142.766;2023-04-21T09:33:15;3.58;;;1.10;;
63699;SDS011;49845;47.130;142.766;2023-04-21T09:36:02;5.03;;;1.10;;
63699;SDS011;49845;47.130;142.766;2023-04-21T09:38:37;4.35;;;0.82;;
63699;SDS011;49845;47.130;142.766;2023-04-21T09:41:08;4.28;;;1.25;;
63699;SDS011;49845;47.130;142.766;2023-04-21T09:43:50;1.90;;;0.80;;
63699;SDS011;49845;47.130;142.766;2023-04-21T09:46:20;4.82;;;0.95;;
63699;SDS011;49845;47.130;142.766;2023-04-21T09:48:53;4.40;;;0.90;;
63699;SDS011;49845;47.130;142.766;2023-04-21T09:51:25;6.90;;;0.95;;
63699;SDS011;49845;47.130;142.766;2023-04-21T09:54:16;2.88;;;0.80;;
63699;SDS011;49845;47.130;142.766;2023-04-21T09:56:52;2.58;;;0.70;;
63699;SDS011;49845;47.130;142.766;2023-04-21T09:59:28;2.08;;;0.70;;
63699;SDS011;49845;47.130;142.766;2023-04-21T10:02:01;0.90;;;0.90;;
63699;SDS011;49845;47.130;142.766;2023-04-21T10:04:35;1.58;;;0.80;;
63699;SDS011;49845;47.130;142.766;2023-04-21T10:07:10;2.42;;;0.70;;
63699;SDS011;49845;47.130;142.766;2023-04-21T10:09:55;0.93;;;0.63;;
63699;SDS011;49845;47.130;142.766;2023-04-21T10:12:30;1.35;;;0.75;;
63699;SDS011;49845;47.130;142.766;2023-04-21T10:15:04;1.13;;;0.80;;
63699;SDS011;49845;47.130;142.766;2023-04-21T10:18:10;0.50;;;0.50;;
63699;SDS011;49845;47.130;142.766;2023-04-21T10:20:50;0.90;;;0.70;;
63699;SDS011;49845;47.130;142.766;2023-04-21T10:23:28;1.92;;;0.68;;
63699;SDS011;49845;47.130;142.766;2023-04-21T10:26:04;0.98;;;0.68;;
63699;SDS011;49845;47.130;142.766;2023-04-21T10:28:39;1.10;;;0.70;;
63699;SDS011;49845;47.130;142.766;2023-04-21T10:31:22;1.20;;;0.65;;
63699;SDS011;49845;47.130;142.766;2023-04-21T10:34:17;0.55;;;0.50;;
63699;SDS011;49845;47.130;142.766;2023-04-21T10:39:52;1.27;;;0.70;;
63699;SDS011;49845;47.130;142.766;2023-04-21T10:42:35;1.38;;;0.60;;
63699;SDS011;49845;47.130;142.766;2023-04-21T10:45:07;0.50;;;0.50;;
63699;SDS011;49845;47.130;142.766;2023-04-21T10:47:47;0.75;;;0.65;;
63699;SDS011;49845;47.130;142.766;2023-04-21T10:50:19;1.33;;;0.80;;
63699;SDS011;49845;47.130;142.766;2023-04-21T10:52:58;0.75;;;0.60;;
63699;SDS011;49845;47.130;142.766;2023-04-21T10:55:37;0.70;;;0.57;;
63699;SDS011;49845;47.130;142.766;2023-04-21T10:58:10;2.75;;;0.88;;
63699;SDS011;49845;47.130;142.766;2023-04-21T11:00:44;0.60;;;0.60;;
63699;SDS011;49845;47.130;142.766;2023-04-21T11:03:16;0.70;;;0.60;;
63699;SDS011;49845;47.130;142.766;2023-04-21T11:05:47;0.60;;;0.60;;
63699;SDS011;49845;47.130;142.766;2023-04-21T11:08:17;0.63;;;0.57;;
63699;SDS011;49845;47.130;142.766;2023-04-21T11:10:49;0.70;;;0.70;;
63699;SDS011;49845;47.130;142.766;2023-04-21T11:13:34;0.88;;;0.70;;
63699;SDS011;49845;47.130;142.766;2023-04-21T11:16:06;0.73;;;0.50;;
63699;SDS011;49845;47.130;142.766;2023-04-21T11:18:42;0.75;;;0.60;;
63699;SDS011;49845;47.130;142.766;2023-04-21T11:21:16;1.05;;;0.60;;
63699;SDS011;49845;47.130;142.766;2023-04-21T11:23:49;1.75;;;0.70;;
63699;SDS011;49845;47.130;142.766;2023-04-21T11:26:30;0.50;;;0.50;;
63699;SDS011;49845;47.130;142.766;2023-04-21T11:29:03;0.98;;;0.70;;
63699;SDS011;49845;47.130;142.766;2023-04-21T11:31:35;2.47;;;1.23;;
63699;SDS011;49845;47.130;142.766;2023-04-21T11:34:08;0.98;;;0.70;;
63699;SDS011;49845;47.130;142.766;2023-04-21T11:36:39;1.83;;;1.00;;
63699;SDS011;49845;47.130;142.766;2023-04-21T11:39:14;1.10;;;0.93;;
63699;SDS011;49845;47.130;142.766;2023-04-21T11:41:48;2.38;;;1.08;;
63699;SDS011;49845;47.130;142.766;2023-04-21T11:44:30;0.90;;;0.70;;
63699;SDS011;49845;47.130;142.766;2023-04-21T11:47:12;0.52;;;0.52;;
63699;SDS011;49845;47.130;142.766;2023-04-21T11:49:49;4.88;;;1.20;;
63699;SDS011;49845;47.130;142.766;2023-04-21T11:52:23;1.40;;;0.73;;
63699;SDS011;49845;47.130;142.766;2023-04-21T11:54:57;0.80;;;0.63;;
63699;SDS011;49845;47.130;142.766;2023-04-21T11:57:29;0.65;;;0.60;;
63699;SDS011;49845;47.130;142.766;2023-04-21T12:00:01;1.00;;;0.70;;
63699;SDS011;49845;47.130;142.766;2023-04-21T12:02:35;3.60;;;0.60;;
63699;SDS011;49845;47.130;142.766;2023-04-21T12:05:09;1.08;;;0.50;;
63699;SDS011;49845;47.130;142.766;2023-04-21T12:07:43;0.52;;;0.52;;
63699;SDS011;49845;47.130;142.766;2023-04-21T12:10:20;0.50;;;0.50;;
63699;SDS011;49845;47.130;142.766;2023-04-21T12:12:50;0.68;;;0.60;;
63699;SDS011;49845;47.130;142.766;2023-04-21T12:15:24;0.60;;;0.55;;
63699;SDS011;49845;47.130;142.766;2023-04-21T12:17:54;0.90;;;0.70;;
63699;SDS011;49845;47.130;142.766;2023-04-21T12:20:34;0.75;;;0.60;;
63699;SDS011;49845;47.130;142.766;2023-04-21T12:23:10;0.52;;;0.50;;
63699;SDS011;49845;47.130;142.766;2023-04-21T12:25:49;0.60;;;0.60;;
63699;SDS011;49845;47.130;142.766;2023-04-21T12:28:20;0.50;;;0.50;;
63699;SDS011;49845;47.130;142.766;2023-04-21T12:31:13;0.65;;;0.52;;
63699;SDS011;49845;47.130;142.766;2023-04-21T12:33:58;0.80;;;0.50;;
63699;SDS011;49845;47.130;142.766;2023-04-21T12:36:33;1.77;;;0.50;;
63699;SDS011;49845;47.130;142.766;2023-04-21T12:39:14;0.85;;;0.60;;
63699;SDS011;49845;47.130;142.766;2023-04-21T12:42:08;0.50;;;0.50;;
63699;SDS011;49845;47.130;142.766;2023-04-21T12:44:39;0.43;;;0.43;;
63699;SDS011;49845;47.130;142.766;2023-04-21T12:47:12;0.50;;;0.50;;
63699;SDS011;49845;47.130;142.766;2023-04-21T12:49:45;0.60;;;0.60;;
63699;SDS011;49845;47.130;142.766;2023-04-21T12:52:18;0.50;;;0.50;;
63699;SDS011;49845;47.130;142.766;2023-04-21T12:54:52;0.50;;;0.50;;
63699;SDS011;49845;47.130;142.766;2023-04-21T12:57:24;0.50;;;0.50;;
63699;SDS011;49845;47.130;142.766;2023-04-21T12:59:56;0.52;;;0.50;;
63699;SDS011;49845;47.130;142.766;2023-04-21T13:02:48;0.60;;;0.60;;
63699;SDS011;49845;47.130;142.766;2023-04-21T13:05:20;0.52;;;0.50;;
63699;SDS011;49845;47.130;142.766;2023-04-21T13:07:53;0.60;;;0.60;;
63699;SDS011;49845;47.130;142.766;2023-04-21T13:10:25;0.50;;;0.50;;
63699;SDS011;49845;47.130;142.766;2023-04-21T13:12:57;0.82;;;0.60;;
63699;SDS011;49845;47.130;142.766;2023-04-21T13:15:28;1.65;;;0.70;;
63699;SDS011;49845;47.130;142.766;2023-04-21T13:18:00;0.60;;;0.60;;
63699;SDS011;49845;47.130;142.766;2023-04-21T13:20:32;0.60;;;0.60;;
63699;SDS011;49845;47.130;142.766;2023-04-21T13:23:05;1.20;;;0.52;;
63699;SDS011;49845;47.130;142.766;2023-04-21T13:25:39;0.50;;;0.50;;
63699;SDS011;49845;47.130;142.766;2023-04-21T13:28:11;0.50;;;0.50;;
63699;SDS011;49845;47.130;142.766;2023-04-21T13:30:44;0.65;;;0.50;;
63699;SDS011;49845;47.130;142.766;2023-04-21T13:33:16;1.00;;;0.75;;
63699;SDS011;49845;47.130;142.766;2023-04-21T13:35:48;0.57;;;0.55;;
63699;SDS011;49845;47.130;142.766;2023-04-21T13:38:21;0.50;;;0.50;;
63699;SDS011;49845;47.130;142.766;2023-04-21T13:40:53;0.98;;;0.50;;
63699;SDS011;49845;47.130;142.766;2023-04-21T13:43:24;0.50;;;0.50;;
63699;SDS011;49845;47.130;142.766;2023-04-21T13:45:57;1.02;;;0.60;;
63699;SDS011;49845;47.130;142.766;2023-04-21T13:48:29;1.85;;;0.50;;
63699;SDS011;49845;47.130;142.766;2023-04-21T13:51:00;0.50;;;0.50;;
63699;SDS011;49845;47.130;142.766;2023-04-21T13:53:33;1.55;;;0.50;;
63699;SDS011;49845;47.130;142.766;2023-04-21T13:56:05;0.60;;;0.60;;
63699;SDS011;49845;47.130;142.766;2023-04-21T13:58:37;0.73;;;0.60;;
63699;SDS011;49845;47.130;142.766;2023-04-21T14:01:11;0.50;;;0.50;;
63699;SDS011;49845;47.130;142.766;2023-04-21T14:03:47;0.50;;;0.50;;
63699;SDS011;49845;47.130;142.766;2023-04-21T14:06:18;0.50;;;0.50;;
63699;SDS011;49845;47.130;142.766;2023-04-21T14:08:52;0.85;;;0.55;;
63699;SDS011;49845;47.130;142.766;2023-04-21T14:11:23;1.40;;;0.50;;
63699;SDS011;49845;47.130;142.766;2023-04-21T14:13:56;3.65;;;0.60;;
63699;SDS011;49845;47.130;142.766;2023-04-21T14:16:36;1.48;;;0.60;;
63699;SDS011;49845;47.130;142.766;2023-04-21T14:19:07;0.57;;;0.57;;
63699;SDS011;49845;47.130;142.766;2023-04-21T14:21:39;0.60;;;0.60;;
63699;SDS011;49845;47.130;142.766;2023-04-21T14:24:12;0.60;;;0.60;;
63699;SDS011;49845;47.130;142.766;2023-04-21T14:26:45;0.77;;;0.60;;
63699;SDS011;49845;47.130;142.766;2023-04-21T14:29:16;0.50;;;0.50;;
63699;SDS011;49845;47.130;142.766;2023-04-21T14:31:47;0.50;;;0.50;;
63699;SDS011;49845;47.130;142.766;2023-04-21T14:34:20;0.73;;;0.50;;
63699;SDS011;49845;47.130;142.766;2023-04-21T14:36:53;0.70;;;0.70;;
63699;SDS011;49845;47.130;142.766;2023-04-21T14:42:45;0.60;;;0.60;;
63699;SDS011;49845;47.130;142.766;2023-04-21T14:46:13;0.60;;;0.60;;
63699;SDS011;49845;47.130;142.766;2023-04-21T14:48:49;0.73;;;0.60;;
63699;SDS011;49845;47.130;142.766;2023-04-21T14:51:20;0.77;;;0.68;;
63699;SDS011;49845;47.130;142.766;2023-04-21T14:53:50;0.80;;;0.60;;
63699;SDS011;49845;47.130;142.766;2023-04-21T14:56:22;0.70;;;0.70;;
63699;SDS011;49845;47.130;142.766;2023-04-21T14:58:59;1.65;;;0.75;;
63699;SDS011;49845;47.130;142.766;2023-04-21T15:01:30;2.15;;;0.80;;